Portada
METAR-TAF:

METAR-TAF

Aeroports :

Mannheim, Alemanya

latitud: 49-28-21N, longitud: 008-30-56E, altitud: 100 m

Observació

L'informe es va fer fa 2 hores i 11 minuts, a les 19:50 UTC
Vent calma
Temperatura 29°C
Humitat 40%
Pressió 1016 hPa
Visibilitat 10 km o més
sense núvols per sota de 1500 mi sense presència de cumulonimbus.

METAR: EDFM 231950Z 00000KT CAVOK 29/14 Q1016

Hora: 00:01 (22:01 UTC)

Pronòstic

L'informe es va fer fa 5 hores i 1 minuts, a les 17:00 UTC
Pronòstic vàlid del 23 a les 18 UTC al 23 a les 21 UTC
Vent 3 kt amb direcció variable
Visibilitat 10 km o més
sense núvols per sota de 1500 mi sense presència de cumulonimbus.

TAF: EDFM 231700Z 2318/2321 VRB03KT CAVOK

Observacions i pronòstics meteorològics de més de 4000 aeroports (METAR i TAF).

Les estacions disponibles són els punts grocs i vermells al mapa.

Posi el ratolí al punt desitjat per veure el nom de l'estació.

Feu clic per veure les observacions i els pronòstics meteorològics.

Per canviar el mapa: feu clic els botons verds amb una creu de color negre per apropar; al botó verd amb un guió per allunyar la imatge; o en les fletxes verdes per a mapes adjacents.


METAR-TAF: